Time;durP1;ratioP1;P1;durP2;ratioP2;P2;SDS_P1;SDS_P2;PMS_P1;PMS_P2;Temp;Humidity;BMP_temperature;BMP_pressure;BME280_temperature;BME280_humidity;BME280_pressure;Samples;Min_cycle;Max_cycle;Signal;HPM_P1;HPM_P2
2021/01/02 00:01:16;;;;;;;64.97;31.17;;;4.30;94.00;;;;;;5011964;28;20130;-77
2021/01/02 00:03:49;;;;;;;64.90;29.50;;;4.30;94.00;;;;;;5011636;28;20061;-77
2021/01/02 00:06:42;;;;;;;64.85;31.15;;;4.30;93.90;;;;;;5016277;28;20504;-77
2021/01/02 00:09:13;;;;;;;64.13;29.75;;;4.20;93.90;;;;;;5005579;28;20437;-77
2021/01/02 00:11:52;;;;;;;66.13;32.13;;;4.30;94.00;;;;;;5017264;28;20025;-77
2021/01/02 00:14:24;;;;;;;69.78;30.13;;;4.30;93.70;;;;;;5018634;28;20077;-77
2021/01/02 00:17:03;;;;;;;66.28;31.23;;;4.30;94.10;;;;;;5002314;28;20036;-77
2021/01/02 00:19:49;;;;;;;63.65;31.15;;;4.30;93.80;;;;;;4997891;28;20026;-77
2021/01/02 00:22:39;;;;;;;59.75;29.67;;;4.30;93.90;;;;;;5009726;28;20026;-77
2021/01/02 00:25:11;;;;;;;63.30;29.05;;;4.20;93.90;;;;;;5013206;28;20058;-76
2021/01/02 00:28:04;;;;;;;62.45;29.67;;;4.20;93.90;;;;;;4994898;28;20494;-77
2021/01/02 00:30:59;;;;;;;71.22;31.83;;;4.20;94.00;;;;;;4994145;28;20029;-77
2021/01/02 00:34:04;;;;;;;64.28;30.77;;;4.20;93.90;;;;;;5012820;28;20080;-77
2021/01/02 00:37:00;;;;;;;65.43;29.92;;;4.30;93.80;;;;;;5010873;28;20516;-77
2021/01/02 00:39:55;;;;;;;68.22;30.73;;;4.30;93.80;;;;;;5015226;28;20084;-77
2021/01/02 00:42:21;;;;;;;70.15;31.05;;;4.30;93.90;;;;;;5011648;28;20394;-77
2021/01/02 00:44:47;;;;;;;64.25;29.85;;;4.30;94.00;;;;;;5001779;28;20025;-77
2021/01/02 00:47:14;;;;;;;60.97;29.45;;;4.30;94.00;;;;;;5016238;28;20044;-77
2021/01/02 00:49:42;;;;;;;67.53;30.13;;;4.30;94.00;;;;;;5004669;28;20026;-77
2021/01/02 00:52:40;;;;;;;63.38;31.20;;;4.20;94.00;;;;;;4996395;28;20058;-77
2021/01/02 00:55:24;;;;;;;65.07;29.23;;;4.20;94.00;;;;;;5003398;28;20038;-77
2021/01/02 00:57:49;;;;;;;63.15;29.65;;;4.30;94.00;;;;;;5034423;28;20033;-76
2021/01/02 01:00:35;;;;;;;65.65;30.25;;;4.30;93.80;;;;;;4999533;28;20054;-77
2021/01/02 01:03:11;;;;;;;60.92;29.33;;;4.40;93.80;;;;;;5016875;28;20482;-77
2021/01/02 01:05:38;;;;;;;61.63;28.33;;;4.40;93.60;;;;;;5017855;28;20484;-77
2021/01/02 01:08:06;;;;;;;69.38;30.23;;;4.30;93.60;;;;;;5018784;28;20076;-77
2021/01/02 01:10:34;;;;;;;56.72;26.98;;;4.30;93.70;;;;;;5015146;28;20026;-76
2021/01/02 01:13:04;;;;;;;57.97;28.15;;;4.30;93.80;;;;;;5018446;28;20025;-77
2021/01/02 01:15:30;;;;;;;59.17;29.15;;;4.20;93.70;;;;;;5031582;28;20033;-77
2021/01/02 01:18:05;;;;;;;58.70;28.40;;;4.20;93.80;;;;;;5016143;28;20034;-77
2021/01/02 01:20:56;;;;;;;57.45;27.48;;;4.20;93.70;;;;;;5005257;28;20033;-77
2021/01/02 01:23:26;;;;;;;54.88;25.88;;;4.30;93.60;;;;;;5005188;28;21236;-77
2021/01/02 01:26:07;;;;;;;50.33;26.73;;;4.30;93.50;;;;;;5000748;28;20035;-76
2021/01/02 01:28:38;;;;;;;54.23;26.97;;;4.20;93.50;;;;;;5032803;28;20033;-76
2021/01/02 01:31:04;;;;;;;;;;;4.20;93.60;;;;;;5016068;28;20038;-76
2021/01/02 01:33:30;;;;;;;59.25;26.63;;;4.20;93.50;;;;;;5016332;28;19979;-76
2021/01/02 01:36:01;;;;;;;59.42;28.08;;;4.20;93.60;;;;;;5017065;28;20121;-76
2021/01/02 01:38:28;;;;;;;;;;;4.20;93.60;;;;;;4996690;28;20037;-77
2021/01/02 01:41:32;;;;;;;56.33;27.48;;;4.20;93.70;;;;;;4999499;28;19917;-77
2021/01/02 01:44:10;;;;;;;57.03;26.40;;;4.20;93.60;;;;;;5016131;28;20113;-76
2021/01/02 01:46:42;;;;;;;53.50;25.25;;;4.20;93.40;;;;;;5032486;28;20048;-76
2021/01/02 01:49:18;;;;;;;57.38;28.88;;;4.30;93.40;;;;;;5014619;28;20417;-76
2021/01/02 01:51:49;;;;;;;55.95;27.60;;;4.20;93.40;;;;;;5016569;28;20077;-76
2021/01/02 01:54:48;;;;;;;60.97;27.83;;;4.20;93.50;;;;;;5000053;28;20030;-76
2021/01/02 01:57:21;;;;;;;56.55;27.83;;;4.10;93.50;;;;;;5033864;28;20488;-76
2021/01/02 01:59:58;;;;;;;54.35;27.02;;;4.10;93.60;;;;;;5016616;28;20029;-76
2021/01/02 02:02:39;;;;;;;55.95;26.23;;;4.10;93.60;;;;;;5017329;28;20029;-76
2021/01/02 02:05:07;;;;;;;55.78;26.75;;;4.10;93.50;;;;;;5015492;28;20036;-76
2021/01/02 02:08:01;;;;;;;55.85;28.05;;;4.10;93.40;;;;;;4998417;28;20042;-76
2021/01/02 02:10:30;;;;;;;56.28;25.77;;;4.10;93.50;;;;;;5001511;28;20029;-76
2021/01/02 02:13:19;;;;;;;53.97;25.65;;;4.00;93.60;;;;;;5017235;28;20088;-76
2021/01/02 02:15:56;;;;;;;55.75;26.13;;;4.10;93.60;;;;;;5000045;28;20033;-76
2021/01/02 02:18:29;;;;;;;56.35;25.27;;;4.00;93.80;;;;;;5022445;28;20038;-76
2021/01/02 02:21:00;;;;;;;51.90;24.95;;;4.00;93.60;;;;;;5014462;28;20030;-76
2021/01/02 02:23:43;;;;;;;54.30;25.58;;;4.00;93.60;;;;;;5015223;28;20109;-76
2021/01/02 02:26:22;;;;;;;56.10;26.38;;;4.10;93.80;;;;;;5016422;28;20433;-76
2021/01/02 02:29:09;;;;;;;53.17;25.17;;;4.00;93.80;;;;;;4999557;28;20159;-76
2021/01/02 02:31:41;;;;;;;48.90;23.67;;;4.10;93.70;;;;;;5015552;28;20025;-76
2021/01/02 02:34:08;;;;;;;47.55;25.30;;;4.10;93.70;;;;;;5002529;28;20032;-76
2021/01/02 02:36:34;;;;;;;52.78;24.85;;;4.10;93.70;;;;;;5018552;28;20038;-76
2021/01/02 02:39:08;;;;;;;50.58;24.45;;;4.10;93.70;;;;;;5017132;28;20489;-76
2021/01/02 02:41:42;;;;;;;46.05;23.20;;;4.10;93.50;;;;;;5003753;28;20033;-76
2021/01/02 02:44:10;;;;;;;48.95;23.92;;;4.10;93.50;;;;;;5002215;28;20405;-76
2021/01/02 02:46:40;;;;;;;46.63;25.67;;;4.10;93.60;;;;;;5019663;28;20025;-76
2021/01/02 02:49:09;;;;;;;49.17;24.73;;;4.00;93.60;;;;;;5016085;28;20022;-76
2021/01/02 02:51:54;;;;;;;47.72;23.98;;;4.10;93.60;;;;;;5020487;28;20272;-76
2021/01/02 02:54:23;;;;;;;48.80;23.90;;;4.10;93.50;;;;;;5001070;28;20029;-76
2021/01/02 02:56:49;;;;;;;51.63;24.65;;;4.00;93.60;;;;;;5001789;28;20057;-76
2021/01/02 02:59:14;;;;;;;51.22;25.25;;;4.00;93.60;;;;;;5004603;28;20103;-76
2021/01/02 03:01:40;;;;;;;48.47;24.38;;;4.00;93.70;;;;;;5017052;28;20167;-76
2021/01/02 03:04:06;;;;;;;50.42;25.08;;;4.00;93.70;;;;;;5018527;28;20037;-76
2021/01/02 03:06:32;;;;;;;51.33;26.38;;;4.00;93.90;;;;;;5017980;28;20105;-76
2021/01/02 03:08:59;;;;;;;58.53;26.13;;;4.00;93.80;;;;;;5018878;28;20053;-76
2021/01/02 03:11:25;;;;;;;54.55;26.60;;;4.00;93.80;;;;;;5012046;22;20043;-77
2021/01/02 03:13:52;;;;;;;48.58;24.30;;;4.00;93.80;;;;;;4986166;28;20029;-77
2021/01/02 03:16:21;;;;;;;48.67;25.27;;;4.00;93.80;;;;;;5003097;28;20038;-76
2021/01/02 03:18:47;;;;;;;50.65;25.85;;;4.00;93.80;;;;;;5017924;28;20044;-77
2021/01/02 03:21:13;;;;;;;53.85;26.55;;;4.10;93.80;;;;;;5002504;28;20030;-77
2021/01/02 03:23:47;;;;;;;53.95;25.25;;;4.10;93.80;;;;;;5000180;28;20034;-77
2021/01/02 03:26:17;;;;;;;53.38;25.88;;;4.10;93.80;;;;;;4999218;28;20018;-77
2021/01/02 03:28:53;;;;;;;46.65;25.25;;;4.10;93.80;;;;;;4982548;28;20481;-77
2021/01/02 03:31:19;;;;;;;49.53;24.27;;;4.10;93.70;;;;;;5000170;28;20030;-77
2021/01/02 03:33:46;;;;;;;49.15;24.13;;;4.10;93.90;;;;;;5000577;28;20552;-77
2021/01/02 03:36:12;;;;;;;51.95;26.27;;;4.10;93.80;;;;;;4981273;28;20033;-77
2021/01/02 03:38:40;;;;;;;54.78;25.55;;;4.10;93.90;;;;;;4981979;28;20026;-77
2021/01/02 03:41:06;;;;;;;55.30;26.08;;;4.10;93.90;;;;;;4997519;28;20121;-77
2021/01/02 03:43:35;;;;;;;46.85;25.23;;;4.10;93.90;;;;;;4997314;28;20572;-77
2021/01/02 03:46:01;;;;;;;46.97;23.80;;;4.10;93.90;;;;;;4996908;28;20109;-76
2021/01/02 03:48:26;;;;;;;50.35;25.17;;;4.10;93.90;;;;;;5000639;28;20140;-77
2021/01/02 03:50:52;;;;;;;48.65;24.90;;;4.10;93.90;;;;;;4997979;28;20068;-77
2021/01/02 03:53:17;;;;;;;50.78;25.73;;;4.10;94.00;;;;;;4983518;28;20076;-77
2021/01/02 03:55:44;;;;;;;53.25;27.00;;;4.20;93.90;;;;;;4999969;28;20038;-77
2021/01/02 03:58:10;;;;;;;54.55;27.90;;;4.20;94.00;;;;;;4981966;28;20054;-77
2021/01/02 04:00:36;;;;;;;53.53;26.13;;;4.20;93.90;;;;;;4982203;28;20061;-77
2021/01/02 04:03:01;;;;;;;49.75;26.00;;;4.20;94.00;;;;;;4996635;28;20045;-77
2021/01/02 04:05:27;;;;;;;55.58;25.40;;;4.20;93.90;;;;;;4998804;28;20042;-76
2021/01/02 04:07:53;;;;;;;52.85;25.17;;;4.20;93.90;;;;;;4981318;28;20033;-77
2021/01/02 04:10:18;;;;;;;52.08;25.08;;;4.30;93.90;;;;;;5001046;28;20057;-77
2021/01/02 04:12:44;;;;;;;51.13;24.33;;;4.20;93.90;;;;;;4998800;28;20077;-77
2021/01/02 04:15:10;;;;;;;49.65;24.52;;;4.30;93.80;;;;;;4999727;28;20494;-77
2021/01/02 04:17:36;;;;;;;54.78;24.40;;;4.30;93.90;;;;;;4994685;28;20034;-77
2021/01/02 04:20:04;;;;;;;49.67;25.48;;;4.30;93.90;;;;;;5013842;28;20113;-77
2021/01/02 04:22:32;;;;;;;46.15;24.55;;;4.30;93.80;;;;;;4997379;28;20026;-77
2021/01/02 04:24:59;;;;;;;47.92;24.90;;;4.30;93.80;;;;;;4981079;28;20038;-77
2021/01/02 04:27:24;;;;;;;48.22;23.60;;;4.30;93.80;;;;;;4997910;28;20516;-77
2021/01/02 04:29:50;;;;;;;52.13;24.92;;;4.30;93.90;;;;;;4999384;28;20034;-77
2021/01/02 04:32:16;;;;;;;46.22;24.17;;;4.30;93.90;;;;;;4997485;28;20033;-76
2021/01/02 04:34:41;;;;;;;50.35;24.65;;;4.30;93.90;;;;;;4997391;28;20580;-77
2021/01/02 04:37:08;;;;;;;49.08;24.67;;;4.30;93.90;;;;;;4982744;28;20084;-77
2021/01/02 04:39:34;;;;;;;43.38;23.08;;;4.30;93.90;;;;;;4981053;28;20030;-77
2021/01/02 04:42:00;;;;;;;48.20;23.73;;;4.40;93.80;;;;;;4996517;28;20030;-77
2021/01/02 04:44:26;;;;;;;45.15;23.20;;;4.40;93.80;;;;;;4983634;28;20077;-76
2021/01/02 04:46:54;;;;;;;47.17;23.20;;;4.30;93.90;;;;;;4997337;28;20286;-77
2021/01/02 04:49:20;;;;;;;46.47;22.92;;;4.30;93.90;;;;;;4996406;28;20389;-77
2021/01/02 04:51:47;;;;;;;44.58;23.50;;;4.30;94.00;;;;;;4998629;28;20390;-77
2021/01/02 04:54:15;;;;;;;48.30;22.80;;;4.30;93.90;;;;;;4997765;28;20095;-77
2021/01/02 04:56:41;;;;;;;48.92;23.70;;;4.30;93.90;;;;;;4998419;28;20481;-77
2021/01/02 04:59:12;;;;;;;44.60;21.95;;;4.40;93.90;;;;;;5000032;28;20054;-77
2021/01/02 05:01:39;;;;;;;46.22;23.58;;;4.40;93.80;;;;;;4994203;28;20394;-77
2021/01/02 05:04:06;;;;;;;47.63;23.65;;;4.40;93.80;;;;;;4997099;28;20096;-76
2021/01/02 05:06:32;;;;;;;46.53;24.35;;;4.40;93.90;;;;;;4999324;28;20053;-77
2021/01/02 05:08:59;;;;;;;45.03;23.10;;;4.40;93.90;;;;;;4980268;28;20099;-77
2021/01/02 05:11:25;;;;;;;43.92;22.33;;;4.40;93.90;;;;;;4997943;28;20033;-77
2021/01/02 05:14:00;;;;;;;46.70;23.27;;;4.40;94.00;;;;;;4981663;28;20500;-77
2021/01/02 05:19:03;;;;;;;50.97;24.65;;;4.40;94.00;;;;;;4998910;28;20030;-77
2021/01/02 05:21:30;;;;;;;45.70;23.05;;;4.40;94.10;;;;;;4994710;28;20081;-77
2021/01/02 05:24:07;;;;;;;44.33;21.88;;;4.40;94.10;;;;;;5003573;28;20068;-77
2021/01/02 05:26:34;;;;;;;49.55;24.13;;;4.40;94.10;;;;;;4999825;28;20029;-76
2021/01/02 05:29:15;;;;;;;45.95;23.65;;;4.40;94.20;;;;;;4997123;28;20033;-76
2021/01/02 05:31:43;;;;;;;47.55;24.02;;;4.40;94.20;;;;;;4997633;28;20057;-76
2021/01/02 05:34:11;;;;;;;48.85;22.50;;;4.40;94.30;;;;;;4977546;28;20045;-76
2021/01/02 05:36:38;;;;;;;48.05;23.10;;;4.40;94.40;;;;;;4997813;28;20037;-75
2021/01/02 05:39:05;;;;;;;47.55;22.98;;;4.40;94.30;;;;;;5000372;28;20059;-76
2021/01/02 05:41:54;;;;;;;53.15;24.60;;;4.40;94.40;;;;;;4997824;28;20494;-76
2021/01/02 05:44:22;;;;;;;46.42;24.17;;;4.40;94.30;;;;;;4996517;28;20101;-76
2021/01/02 05:46:54;;;;;;;43.85;23.10;;;4.40;94.30;;;;;;5007848;28;20026;-76
2021/01/02 05:49:47;;;;;;;49.85;23.50;;;4.40;94.20;;;;;;4994032;28;20026;-76
2021/01/02 05:52:13;;;;;;;51.33;24.42;;;4.50;94.20;;;;;;4999503;28;20416;-76
2021/01/02 05:54:59;;;;;;;45.38;23.15;;;4.50;94.10;;;;;;4999749;28;20547;-76
2021/01/02 05:57:29;;;;;;;45.47;23.15;;;4.50;94.00;;;;;;4978669;28;20066;-76
2021/01/02 05:59:56;;;;;;;50.30;24.08;;;4.40;94.20;;;;;;4995919;28;20030;-76
2021/01/02 06:02:27;;;;;;;48.35;23.95;;;4.50;94.10;;;;;;4981498;28;20402;-76
2021/01/02 06:05:00;;;;;;;45.50;22.63;;;4.40;94.10;;;;;;4996755;28;20042;-76
2021/01/02 06:07:28;;;;;;;54.33;26.27;;;4.40;94.20;;;;;;4999453;28;20030;-76
2021/01/02 06:09:54;;;;;;;45.15;23.33;;;4.40;94.20;;;;;;4986033;28;20137;-76
2021/01/02 06:12:30;;;;;;;48.30;23.48;;;4.40;94.30;;;;;;4998791;28;20033;-76
2021/01/02 06:14:59;;;;;;;50.63;24.77;;;4.40;94.00;;;;;;5003086;28;20425;-77
2021/01/02 06:17:36;;;;;;;47.88;23.52;;;4.40;94.10;;;;;;5000146;28;20045;-77
2021/01/02 06:20:08;;;;;;;52.22;25.73;;;4.40;94.20;;;;;;5002273;28;20034;-77
2021/01/02 06:22:38;;;;;;;49.95;25.27;;;4.40;94.20;;;;;;5001671;28;20030;-77
2021/01/02 06:25:06;;;;;;;53.95;25.65;;;4.40;94.30;;;;;;4999222;28;20033;-77
2021/01/02 06:27:33;;;;;;;49.88;25.80;;;4.40;94.20;;;;;;5001395;28;20105;-77
2021/01/02 06:30:00;;;;;;;53.08;25.48;;;4.40;94.00;;;;;;5002510;28;20065;-77
2021/01/02 06:32:28;;;;;;;51.85;25.58;;;4.50;93.90;;;;;;4999299;28;20026;-77
2021/01/02 06:35:06;;;;;;;50.22;24.92;;;4.50;94.00;;;;;;5001008;28;20034;-77
2021/01/02 06:37:50;;;;;;;49.45;24.42;;;4.40;94.00;;;;;;4985783;28;20041;-77
2021/01/02 06:40:29;;;;;;;49.58;24.60;;;4.50;94.00;;;;;;5002235;28;20030;-77
2021/01/02 06:42:59;;;;;;;47.33;24.70;;;4.50;93.90;;;;;;4984113;28;20400;-77
2021/01/02 06:45:37;;;;;;;50.95;25.60;;;4.50;94.00;;;;;;4999134;28;20041;-77
2021/01/02 06:48:20;;;;;;;48.25;24.17;;;4.40;94.00;;;;;;4982933;28;20046;-77
2021/01/02 06:50:50;;;;;;;47.10;24.98;;;4.50;94.00;;;;;;5001323;28;20030;-77
2021/01/02 06:53:27;;;;;;;48.22;24.02;;;4.40;94.00;;;;;;4986991;28;20029;-77
2021/01/02 06:56:02;;;;;;;49.08;26.08;;;4.50;94.00;;;;;;5001801;28;20030;-77
2021/01/02 06:58:42;;;;;;;51.45;24.88;;;4.40;94.00;;;;;;4999529;28;20062;-77
2021/01/02 07:01:09;;;;;;;50.53;25.48;;;4.40;94.00;;;;;;4998345;28;21227;-77
2021/01/02 07:03:44;;;;;;;49.65;23.10;;;4.40;94.00;;;;;;5000821;28;20077;-77
2021/01/02 07:08:51;;;;;;;54.92;26.48;;;4.40;93.90;;;;;;4999903;28;20030;-77
2021/01/02 07:11:21;;;;;;;50.85;25.98;;;4.40;93.90;;;;;;5000720;28;20031;-77
2021/01/02 07:13:47;;;;;;;49.40;24.63;;;4.40;94.00;;;;;;4998382;28;20029;-77
2021/01/02 07:16:31;;;;;;;56.90;26.85;;;4.40;94.00;;;;;;5001184;28;20493;-77
2021/01/02 07:18:57;;;;;;;55.55;26.45;;;4.40;94.00;;;;;;5002076;28;20081;-77
2021/01/02 07:21:36;;;;;;;52.83;24.83;;;4.40;94.00;;;;;;5001203;28;20069;-77
2021/01/02 07:24:28;;;;;;;53.67;25.80;;;4.40;94.10;;;;;;5000192;28;20033;-77
2021/01/02 07:27:01;;;;;;;54.78;26.60;;;4.40;94.10;;;;;;4998730;28;20064;-77
2021/01/02 07:29:28;;;;;;;52.13;25.85;;;4.40;94.00;;;;;;5001585;28;20449;-78
2021/01/02 07:32:04;;;;;;;51.97;25.25;;;4.40;94.10;;;;;;4998537;28;20517;-77
2021/01/02 07:34:29;;;;;;;52.75;26.35;;;4.40;94.10;;;;;;4999819;28;20042;-78
2021/01/02 07:36:55;;;;;;;53.90;25.63;;;4.40;94.10;;;;;;5015143;28;20387;-77
2021/01/02 07:39:21;;;;;;;51.75;25.77;;;4.40;94.00;;;;;;5007357;28;20462;-78
2021/01/02 07:41:52;;;;;;;50.80;24.08;;;4.50;94.00;;;;;;5002340;28;20083;-78
2021/01/02 07:44:20;;;;;;;55.35;25.63;;;4.50;93.80;;;;;;4999730;28;20061;-78
2021/01/02 07:46:46;;;;;;;53.40;25.42;;;4.50;93.90;;;;;;5002124;28;20510;-78
2021/01/02 07:49:16;;;;;;;52.95;25.50;;;4.50;93.80;;;;;;4996835;28;20117;-77
2021/01/02 07:51:49;;;;;;;51.50;25.13;;;4.50;93.80;;;;;;5001863;28;20040;-78
2021/01/02 07:54:31;;;;;;;54.38;26.70;;;4.50;93.90;;;;;;4999686;28;20034;-78
2021/01/02 07:56:57;;;;;;;55.10;26.52;;;4.50;93.80;;;;;;5002482;28;20200;-78
2021/01/02 07:59:24;;;;;;;51.92;25.77;;;4.40;93.90;;;;;;5000501;28;20042;-77
2021/01/02 08:01:52;;;;;;;52.35;25.48;;;4.40;94.00;;;;;;4998205;28;20026;-76
2021/01/02 08:04:19;;;;;;;56.53;26.08;;;4.40;93.90;;;;;;4998893;28;20022;-77
2021/01/02 08:06:54;;;;;;;56.15;26.88;;;4.40;94.00;;;;;;4997670;28;20030;-78
2021/01/02 08:09:20;;;;;;;56.15;26.45;;;4.40;94.00;;;;;;4983725;28;20120;-78
2021/01/02 08:11:51;;;;;;;55.42;25.65;;;4.40;94.10;;;;;;5001032;28;20497;-78
2021/01/02 08:14:18;;;;;;;55.70;25.63;;;4.40;94.10;;;;;;5002059;28;20048;-76
2021/01/02 08:17:00;;;;;;;56.67;26.15;;;4.40;94.10;;;;;;5001341;28;20109;-76
2021/01/02 08:19:33;;;;;;;55.60;26.95;;;4.40;94.00;;;;;;4998923;28;20034;-77
2021/01/02 08:21:59;;;;;;;58.63;27.52;;;4.40;94.00;;;;;;4999362;28;20045;-78
2021/01/02 08:24:25;;;;;;;57.47;27.00;;;4.40;94.10;;;;;;4998781;28;20030;-75
2021/01/02 08:26:51;;;;;;;66.55;27.65;;;4.40;94.00;;;;;;4981873;28;20022;-78
2021/01/02 08:29:17;;;;;;;56.20;26.33;;;4.40;94.00;;;;;;4999230;28;20041;-77
2021/01/02 08:31:52;;;;;;;56.55;25.67;;;4.40;94.10;;;;;;4996847;28;20029;-77
2021/01/02 08:34:28;;;;;;;58.38;26.95;;;4.40;94.10;;;;;;4981928;28;20117;-77
2021/01/02 08:37:20;;;;;;;59.35;26.65;;;4.40;94.20;;;;;;4997733;28;20084;-77
2021/01/02 08:39:46;;;;;;;60.47;27.33;;;4.40;94.20;;;;;;5000432;28;20169;-77
2021/01/02 08:42:12;;;;;;;61.33;29.02;;;4.40;94.10;;;;;;4999389;28;20478;-77
2021/01/02 08:44:47;;;;;;;58.78;28.00;;;4.40;94.10;;;;;;5001341;28;20105;-77
2021/01/02 08:47:25;;;;;;;61.42;26.67;;;4.50;94.10;;;;;;5000013;28;20026;-77
2021/01/02 08:49:51;;;;;;;61.20;26.52;;;4.50;93.90;;;;;;4997298;28;20029;-77
2021/01/02 08:52:22;;;;;;;64.03;28.23;;;4.40;93.90;;;;;;4997665;28;20026;-77
2021/01/02 08:54:50;;;;;;;60.88;26.83;;;4.40;94.00;;;;;;4998887;28;20026;-77
2021/01/02 08:57:44;;;;;;;62.25;27.08;;;4.40;94.00;;;;;;4999333;28;20069;-77
2021/01/02 09:00:25;;;;;;;60.75;26.63;;;4.40;94.00;;;;;;4999634;28;20042;-77
2021/01/02 09:03:02;;;;;;;57.85;27.90;;;4.40;94.00;;;;;;5000491;28;20034;-77
2021/01/02 09:05:32;;;;;;;58.92;27.95;;;4.40;94.10;;;;;;4999330;28;20034;-77
2021/01/02 09:07:59;;;;;;;58.22;25.88;;;4.40;94.10;;;;;;4977366;28;20041;-77
2021/01/02 09:10:27;;;;;;;54.00;25.13;;;4.40;94.10;;;;;;4993144;28;20026;-77
2021/01/02 09:13:24;;;;;;;66.10;28.58;;;4.40;94.10;;;;;;4998219;28;20053;-77
2021/01/02 09:15:55;;;;;;;56.58;26.30;;;4.50;94.60;;;;;;5001452;28;20018;-77
2021/01/02 09:18:29;;;;;;;60.47;26.27;;;4.50;94.10;;;;;;4999538;28;20034;-77
2021/01/02 09:20:56;;;;;;;59.63;27.33;;;4.50;93.90;;;;;;4998920;28;20076;-77
2021/01/02 09:23:38;;;;;;;60.63;26.65;;;4.50;93.80;;;;;;4999288;28;20029;-77
2021/01/02 09:26:24;;;;;;;55.55;26.05;;;4.50;93.90;;;;;;4998053;28;20037;-77
2021/01/02 09:28:51;;;;;;;66.38;28.67;;;4.50;93.90;;;;;;4993207;28;20042;-77
2021/01/02 09:31:18;;;;;;;60.03;27.58;;;4.50;93.90;;;;;;4994315;28;20681;-78
2021/01/02 09:33:45;;;;;;;60.60;26.30;;;4.60;93.70;;;;;;4996324;28;20052;-77
2021/01/02 09:36:19;;;;;;;55.92;25.75;;;4.50;93.80;;;;;;4998842;28;20032;-75
2021/01/02 09:38:45;;;;;;;62.35;26.88;;;4.50;93.80;;;;;;4996846;28;20049;-76
2021/01/02 09:41:14;;;;;;;61.17;27.35;;;4.50;93.90;;;;;;4983369;28;20485;-76
2021/01/02 09:43:41;;;;;;;60.60;27.10;;;4.50;93.90;;;;;;4995805;28;20456;-77
2021/01/02 09:46:16;;;;;;;53.00;25.45;;;4.50;93.90;;;;;;5000513;28;20026;-77
2021/01/02 09:48:42;;;;;;;63.15;28.73;;;4.50;93.90;;;;;;4982053;28;20023;-77
2021/01/02 09:51:08;;;;;;;78.95;35.17;;;4.60;93.90;;;;;;4984329;28;20034;-77
2021/01/02 09:53:36;;;;;;;152.05;50.97;;;4.60;93.90;;;;;;5002528;28;20141;-77
2021/01/02 09:56:02;;;;;;;63.08;27.60;;;4.60;93.80;;;;;;5005249;28;20036;-76
2021/01/02 09:58:28;;;;;;;58.88;26.98;;;4.60;93.70;;;;;;5003266;28;20109;-77
2021/01/02 10:00:53;;;;;;;59.70;28.25;;;4.60;93.70;;;;;;5002179;28;20034;-75
2021/01/02 10:03:19;;;;;;;53.92;25.33;;;4.70;93.60;;;;;;4990779;28;20482;-78
2021/01/02 10:05:45;;;;;;;52.13;25.30;;;4.60;93.70;;;;;;5000805;28;20022;-78
2021/01/02 10:08:10;;;;;;;60.45;26.80;;;4.60;93.70;;;;;;5005514;28;20023;-78
2021/01/02 10:10:36;;;;;;;52.97;25.58;;;4.80;94.00;;;;;;5007677;28;20058;-79
2021/01/02 10:13:02;;;;;;;53.15;25.52;;;5.00;93.00;;;;;;4990704;28;20041;-79
2021/01/02 10:15:29;;;;;;;55.03;26.02;;;4.90;92.90;;;;;;4991954;28;20037;-77
2021/01/02 10:17:55;;;;;;;55.78;27.58;;;4.90;93.10;;;;;;5000026;28;20034;-77
2021/01/02 10:20:20;;;;;;;57.05;26.10;;;4.90;93.20;;;;;;4974867;28;20104;-78
2021/01/02 10:22:46;;;;;;;54.75;25.83;;;4.80;93.30;;;;;;4998415;28;20413;-76
2021/01/02 10:25:13;;;;;;;49.63;24.52;;;4.80;93.40;;;;;;4994013;28;20033;-77
2021/01/02 10:27:38;;;;;;;52.22;24.75;;;4.80;93.20;;;;;;4974316;28;20450;-77
2021/01/02 10:30:07;;;;;;;53.45;25.98;;;4.80;93.30;;;;;;4985152;28;20110;-77
2021/01/02 10:32:33;;;;;;;53.85;25.73;;;4.80;93.30;;;;;;4975599;28;20061;-77
2021/01/02 10:34:58;;;;;;;55.00;25.60;;;4.90;93.50;;;;;;4998003;28;20053;-76
2021/01/02 10:37:26;;;;;;;49.67;25.05;;;5.10;93.10;;;;;;5001070;28;20620;-76
2021/01/02 10:39:53;;;;;;;50.25;22.15;;;5.20;92.80;;;;;;4978226;28;20105;-76
2021/01/02 10:42:26;;;;;;;46.90;23.23;;;5.10;92.60;;;;;;4986047;28;20036;-76
2021/01/02 10:44:52;;;;;;;52.72;24.40;;;5.10;92.60;;;;;;4991677;28;20577;-78
2021/01/02 10:47:24;;;;;;;43.47;23.05;;;5.10;92.90;;;;;;4978730;28;20062;-79
2021/01/02 10:49:51;;;;;;;45.42;23.15;;;5.00;92.70;;;;;;4995600;28;20018;-78
2021/01/02 10:52:22;;;;;;;49.92;23.25;;;5.00;92.90;;;;;;4993944;28;20501;-77
2021/01/02 10:54:49;;;;;;;48.63;23.23;;;5.00;93.50;;;;;;4995667;28;20034;-76
2021/01/02 10:57:16;;;;;;;49.25;23.73;;;5.10;93.00;;;;;;4984573;28;20175;-75
2021/01/02 10:59:47;;;;;;;48.33;23.85;;;5.10;93.00;;;;;;4996635;28;20493;-77
2021/01/02 11:02:14;;;;;;;53.13;24.95;;;5.10;92.90;;;;;;4999840;28;20482;-77
2021/01/02 11:04:41;;;;;;;49.00;24.30;;;5.10;92.90;;;;;;4983154;28;20081;-76
2021/01/02 11:07:07;;;;;;;50.15;25.00;;;5.10;92.90;;;;;;5000355;28;20576;-77
2021/01/02 11:09:33;;;;;;;47.60;22.95;;;5.00;93.00;;;;;;4998245;28;20065;-79
2021/01/02 11:12:00;;;;;;;48.03;23.75;;;4.90;93.10;;;;;;4991913;28;20069;-76
2021/01/02 11:14:26;;;;;;;49.70;24.50;;;4.90;93.00;;;;;;4996079;28;20026;-76
2021/01/02 11:16:52;;;;;;;49.60;25.20;;;5.00;93.00;;;;;;4998913;28;20098;-75
2021/01/02 11:19:27;;;;;;;55.08;26.25;;;4.90;93.10;;;;;;4998891;28;20026;-76
2021/01/02 11:21:55;;;;;;;49.97;24.08;;;5.00;93.10;;;;;;4995667;28;20018;-77
2021/01/02 11:24:23;;;;;;;52.38;25.45;;;4.90;93.20;;;;;;4991100;28;20667;-77
2021/01/02 11:26:52;;;;;;;49.97;24.23;;;4.90;93.30;;;;;;4997666;28;20176;-78
2021/01/02 11:29:20;;;;;;;49.80;24.70;;;4.90;93.30;;;;;;4998148;28;20042;-77
2021/01/02 11:31:46;;;;;;;46.60;22.77;;;4.80;93.30;;;;;;4999430;28;20100;-76
2021/01/02 11:34:13;;;;;;;49.17;23.75;;;4.80;93.30;;;;;;4991713;28;20034;-75
2021/01/02 11:36:40;;;;;;;50.35;24.00;;;4.90;93.30;;;;;;4981841;28;20038;-76
2021/01/02 11:39:06;;;;;;;48.67;23.48;;;4.80;93.30;;;;;;4976328;28;20117;-74
2021/01/02 11:41:43;;;;;;;46.42;22.33;;;4.80;93.30;;;;;;4980281;28;20022;-76
2021/01/02 11:44:11;;;;;;;46.10;21.67;;;4.80;93.20;;;;;;5000918;28;20592;-76
2021/01/02 11:46:43;;;;;;;52.22;23.65;;;4.80;93.30;;;;;;4997817;28;20568;-74
2021/01/02 11:49:11;;;;;;;50.53;24.35;;;4.80;93.30;;;;;;4979661;28;20026;-74
2021/01/02 11:51:37;;;;;;;48.78;23.42;;;4.80;93.30;;;;;;4999317;28;20030;-77
2021/01/02 11:54:04;;;;;;;54.30;25.77;;;4.90;93.20;;;;;;4980307;28;20117;-77
2021/01/02 11:56:30;;;;;;;50.83;23.88;;;4.90;93.30;;;;;;4982812;28;20379;-74
2021/01/02 11:59:00;;;;;;;52.58;23.50;;;4.90;93.10;;;;;;4981563;28;20081;-75
2021/01/02 12:01:35;;;;;;;45.97;22.67;;;4.90;93.10;;;;;;4998225;28;20100;-75
2021/01/02 12:04:01;;;;;;;50.97;23.02;;;5.00;93.10;;;;;;4980167;28;20084;-75
2021/01/02 12:06:31;;;;;;;51.42;23.35;;;4.90;93.10;;;;;;5002166;28;20030;-79
2021/01/02 12:08:58;;;;;;;52.78;24.52;;;5.00;93.10;;;;;;4998708;28;20030;-76
2021/01/02 12:11:33;;;;;;;48.83;24.35;;;4.90;93.10;;;;;;5001628;28;20096;-75
2021/01/02 12:14:00;;;;;;;50.83;23.77;;;5.00;92.90;;;;;;4977130;28;20026;-76
2021/01/02 12:16:41;;;;;;;49.63;23.17;;;5.00;92.90;;;;;;4995583;28;20026;-77
2021/01/02 12:19:09;;;;;;;55.88;27.45;;;5.00;93.10;;;;;;4985612;28;20030;-77
2021/01/02 12:21:35;;;;;;;52.00;24.58;;;5.00;93.20;;;;;;4975897;28;20027;-77
2021/01/02 12:24:00;;;;;;;47.35;23.90;;;4.90;93.60;;;;;;4997505;28;20026;-77
2021/01/02 12:26:27;;;;;;;50.92;22.85;;;5.10;94.30;;;;;;4975644;28;20044;-77
2021/01/02 12:28:53;;;;;;;48.80;24.15;;;5.20;93.30;;;;;;4979543;28;20037;-76
2021/01/02 12:31:28;;;;;;;46.53;23.08;;;5.20;93.00;;;;;;4993119;28;20464;-78
2021/01/02 12:33:55;;;;;;;48.47;21.67;;;5.10;93.00;;;;;;4995144;28;20421;-78
2021/01/02 12:36:35;;;;;;;49.58;22.23;;;5.10;93.10;;;;;;4996406;28;20034;-78
2021/01/02 12:39:01;;;;;;;49.63;21.67;;;5.10;93.10;;;;;;4995516;28;20541;-77
2021/01/02 12:41:27;;;;;;;42.53;20.05;;;5.10;93.50;;;;;;5000188;28;20044;-78
2021/01/02 12:43:53;;;;;;;44.20;21.23;;;5.20;93.10;;;;;;5001674;28;20594;-81
2021/01/02 12:46:19;;;;;;;47.42;20.92;;;5.20;93.00;;;;;;5011652;28;20089;-77
2021/01/02 12:48:48;;;;;;;40.03;20.42;;;5.20;92.80;;;;;;5001603;28;20029;-78
2021/01/02 12:51:20;;;;;;;43.17;19.92;;;5.20;93.10;;;;;;4988307;28;20493;-77
2021/01/02 12:53:46;;;;;;;39.30;18.52;;;5.20;92.90;;;;;;5006994;28;20125;-77
2021/01/02 12:56:11;;;;;;;42.33;18.75;;;5.10;92.90;;;;;;4997765;28;20064;-77
2021/01/02 12:58:39;;;;;;;120.60;75.22;;;5.10;92.90;;;;;;5001723;28;20048;-78
2021/01/02 13:01:04;;;;;;;270.73;129.95;;;5.10;93.10;;;;;;4998292;28;20034;-77
2021/01/02 13:03:30;;;;;;;271.42;140.52;;;5.10;92.80;;;;;;5002370;28;20392;-78